Meteo Giornale » Osservazioni meteo Stati Uniti (USA) » Wichita Falls Sheppard
ore: 00:52 - Osservazioni Meteo Wichita Falls Sheppard
Lat. 33° 58' N Lon. 98° 29' W Alt. 309 metri s.l.m.
26 °C
Sereno
Temp. 24 Ore
24 °C
39 °C
Sud/Sud-Est
14.8 Km/h
Dew point 14 °C
Umidità 47 %
Visibilità 10 Km
Il sole sorge alle ore 07:07
Il sole tramonta alle ore 19:59
| Data e Ora | Cielo e Fenomeni | T °C | DP °C | Um. % | Pres. hPa | Vis. km | Vento km/h | |
|---|---|---|---|---|---|---|---|---|
| Oggi h: 00:52 | Sereno | 26 | 14 | 47 | 1015 | 10 | S/SE 14.8 | |
| Ieri h: 23:52 | Sereno | 27 | 14 | 44 | 1015 | 10 | S/SE 14.8 | |
| Ieri h: 22:52 | Sereno | 29 | 13 | 37 | 1014 | 10 | S/SE 14.8 | |
| Ieri h: 21:52 | Sereno | 30 | 13 | 35 | 1014 | 10 | SE 16.7 | |
| Ieri h: 20:52 | Sereno | 32 | 13 | 31 | 1013 | 10 | SE 18.5 | |
| Ieri h: 19:52 | Sereno | 33 | 12 | 27 | 1012 | 10 | SE 14.8 | |
| Ieri h: 18:52 | Sereno | 37 | 11 | 20 | 1012 | 10 | S/SE 16.7 | |
| Ieri h: 17:52 | Sereno | 38 | 12 | 21 | 1012 | 10 | S/SE 20.3 | |
| Ieri h: 16:52 | Poco Nuvoloso | 38 | 12 | 21 | 1013 | 10 | S 16.7 | |
| Ieri h: 15:52 | Molto Nuvoloso | 39 | 13 | 21 | 1014 | 10 | S/SE 25.9 | |
| Ieri h: 14:52 | Nuvoloso | 38 | 14 | 24 | 1015 | 10 | S/SE 18.5 | |
| Ieri h: 14:01 | Poco Nuvoloso | 36 | 14 | 26 | 1015 | 10 | S/SO 9.3 | |
| Ieri h: 13:52 | Nuvoloso | 38 | 14 | 24 | 1015 | 10 | S/SO 22.2 | |
| Ieri h: 12:52 | Molto Nuvoloso | 37 | 16 | 28 | 1016 | 10 | S 14.8 | |
| Ieri h: 11:52 | Poco Nuvoloso | 36 | 17 | 32 | 1016 | 10 | S/SO 20.3 | |
| Ieri h: 10:52 | Sereno | 34 | 18 | 38 | 1016 | 10 | S/SO 18.5 | |
| Ieri h: 09:52 | Sereno | 32 | 18 | 43 | 1016 | 10 | S/SO 20.3 | |
| Ieri h: 08:52 | Sereno | 29 | 19 | 54 | 1016 | 10 | S 16.7 | |
| Ieri h: 07:52 | Sereno | 25 | 18 | 65 | 1015 | 10 | S 9.3 | |
| Ieri h: 06:52 | Sereno | 24 | 17 | 64 | 1015 | 10 | S 14.8 | |
| Ieri h: 05:52 | Sereno | 24 | 16 | 60 | 1014 | 10 | S 14.8 | |
| Ieri h: 04:52 | Sereno | 26 | 16 | 54 | 1014 | 10 | S 16.7 | |
| Ieri h: 03:52 | Sereno | 26 | 15 | 50 | 1014 | 10 | S 11.1 | |
| Ieri h: 02:52 | Sereno | 28 | 15 | 45 | 1014 | 10 | S 18.5 | |
| Ieri h: 01:52 | Sereno | 29 | 14 | 39 | 1014 | 10 | S 16.7 | |



